sensor_id;sensor_type;location;lat;lon;timestamp;P1;durP1;ratioP1;P2;durP2;ratioP2
22172;SDS011;11252;50.596;17.648;2022-11-28T00:03:59;98.23;;;57.60;;
22172;SDS011;11252;50.596;17.648;2022-11-28T00:06:27;97.30;;;59.53;;
22172;SDS011;11252;50.596;17.648;2022-11-28T00:08:56;89.90;;;54.03;;
22172;SDS011;11252;50.596;17.648;2022-11-28T00:11:24;95.93;;;59.43;;
22172;SDS011;11252;50.596;17.648;2022-11-28T00:13:53;96.70;;;59.33;;
22172;SDS011;11252;50.596;17.648;2022-11-28T00:16:21;97.43;;;59.53;;
22172;SDS011;11252;50.596;17.648;2022-11-28T00:18:49;110.87;;;70.17;;
22172;SDS011;11252;50.596;17.648;2022-11-28T00:21:18;100.43;;;66.90;;
22172;SDS011;11252;50.596;17.648;2022-11-28T00:23:46;113.73;;;74.40;;
22172;SDS011;11252;50.596;17.648;2022-11-28T00:26:15;98.43;;;62.97;;
22172;SDS011;11252;50.596;17.648;2022-11-28T00:28:50;90.23;;;56.43;;
22172;SDS011;11252;50.596;17.648;2022-11-28T00:31:19;90.40;;;56.90;;
22172;SDS011;11252;50.596;17.648;2022-11-28T00:33:48;95.47;;;58.47;;
22172;SDS011;11252;50.596;17.648;2022-11-28T00:36:16;86.27;;;55.27;;
22172;SDS011;11252;50.596;17.648;2022-11-28T00:38:46;101.37;;;61.93;;
22172;SDS011;11252;50.596;17.648;2022-11-28T00:41:15;96.83;;;59.00;;
22172;SDS011;11252;50.596;17.648;2022-11-28T00:43:44;100.93;;;61.03;;
22172;SDS011;11252;50.596;17.648;2022-11-28T00:46:13;114.87;;;68.73;;
22172;SDS011;11252;50.596;17.648;2022-11-28T00:48:41;126.37;;;74.37;;
22172;SDS011;11252;50.596;17.648;2022-11-28T00:51:13;99.20;;;60.90;;
22172;SDS011;11252;50.596;17.648;2022-11-28T00:53:41;116.37;;;68.37;;
22172;SDS011;11252;50.596;17.648;2022-11-28T00:56:11;117.97;;;69.73;;
22172;SDS011;11252;50.596;17.648;2022-11-28T00:58:39;124.53;;;72.33;;
22172;SDS011;11252;50.596;17.648;2022-11-28T01:03:43;124.00;;;70.10;;
22172;SDS011;11252;50.596;17.648;2022-11-28T01:06:11;120.90;;;71.70;;
22172;SDS011;11252;50.596;17.648;2022-11-28T01:08:46;116.70;;;68.50;;
22172;SDS011;11252;50.596;17.648;2022-11-28T01:11:13;123.00;;;72.40;;
22172;SDS011;11252;50.596;17.648;2022-11-28T01:13:40;123.73;;;72.20;;
22172;SDS011;11252;50.596;17.648;2022-11-28T01:16:07;128.43;;;74.37;;
22172;SDS011;11252;50.596;17.648;2022-11-28T01:18:35;127.57;;;77.40;;
22172;SDS011;11252;50.596;17.648;2022-11-28T01:21:03;138.63;;;79.13;;
22172;SDS011;11252;50.596;17.648;2022-11-28T01:23:31;150.07;;;87.07;;
22172;SDS011;11252;50.596;17.648;2022-11-28T01:25:59;132.10;;;79.00;;
22172;SDS011;11252;50.596;17.648;2022-11-28T01:28:27;138.53;;;82.50;;
22172;SDS011;11252;50.596;17.648;2022-11-28T01:30:55;136.77;;;81.03;;
22172;SDS011;11252;50.596;17.648;2022-11-28T01:33:22;133.90;;;79.83;;
22172;SDS011;11252;50.596;17.648;2022-11-28T01:35:56;138.73;;;77.73;;
22172;SDS011;11252;50.596;17.648;2022-11-28T01:38:25;132.60;;;77.50;;
22172;SDS011;11252;50.596;17.648;2022-11-28T01:40:53;132.27;;;76.97;;
22172;SDS011;11252;50.596;17.648;2022-11-28T01:43:22;126.23;;;76.47;;
22172;SDS011;11252;50.596;17.648;2022-11-28T01:45:50;143.53;;;81.23;;
22172;SDS011;11252;50.596;17.648;2022-11-28T01:48:37;145.93;;;91.97;;
22172;SDS011;11252;50.596;17.648;2022-11-28T01:51:08;168.70;;;106.57;;
22172;SDS011;11252;50.596;17.648;2022-11-28T01:53:36;150.63;;;88.87;;
22172;SDS011;11252;50.596;17.648;2022-11-28T01:56:16;172.07;;;112.70;;
22172;SDS011;11252;50.596;17.648;2022-11-28T01:58:48;147.83;;;91.23;;
22172;SDS011;11252;50.596;17.648;2022-11-28T02:01:18;141.77;;;81.83;;
22172;SDS011;11252;50.596;17.648;2022-11-28T02:03:47;139.97;;;82.33;;
22172;SDS011;11252;50.596;17.648;2022-11-28T02:06:17;140.03;;;82.77;;
22172;SDS011;11252;50.596;17.648;2022-11-28T02:08:49;143.00;;;79.33;;
22172;SDS011;11252;50.596;17.648;2022-11-28T02:11:28;141.27;;;81.37;;
22172;SDS011;11252;50.596;17.648;2022-11-28T02:30:51;150.90;;;82.07;;
22172;SDS011;11252;50.596;17.648;2022-11-28T02:33:30;148.30;;;83.67;;
22172;SDS011;11252;50.596;17.648;2022-11-28T02:36:09;155.23;;;84.83;;
22172;SDS011;11252;50.596;17.648;2022-11-28T02:38:42;163.10;;;87.50;;
22172;SDS011;11252;50.596;17.648;2022-11-28T02:41:43;153.57;;;85.20;;
22172;SDS011;11252;50.596;17.648;2022-11-28T02:44:33;161.43;;;88.53;;
22172;SDS011;11252;50.596;17.648;2022-11-28T02:47:13;160.80;;;89.47;;
22172;SDS011;11252;50.596;17.648;2022-11-28T02:50:06;165.07;;;90.13;;
22172;SDS011;11252;50.596;17.648;2022-11-28T02:52:39;158.70;;;85.87;;
22172;SDS011;11252;50.596;17.648;2022-11-28T02:55:08;165.37;;;90.47;;
22172;SDS011;11252;50.596;17.648;2022-11-28T02:57:36;163.67;;;89.03;;
22172;SDS011;11252;50.596;17.648;2022-11-28T03:02:49;173.40;;;90.33;;
22172;SDS011;11252;50.596;17.648;2022-11-28T03:05:28;152.20;;;83.40;;
22172;SDS011;11252;50.596;17.648;2022-11-28T03:08:05;172.30;;;91.30;;
22172;SDS011;11252;50.596;17.648;2022-11-28T03:10:41;166.73;;;86.10;;
22172;SDS011;11252;50.596;17.648;2022-11-28T03:13:21;171.93;;;88.97;;
22172;SDS011;11252;50.596;17.648;2022-11-28T03:18:37;170.37;;;93.97;;
22172;SDS011;11252;50.596;17.648;2022-11-28T03:23:45;192.07;;;111.00;;
22172;SDS011;11252;50.596;17.648;2022-11-28T03:29:10;162.67;;;88.13;;
22172;SDS011;11252;50.596;17.648;2022-11-28T03:31:46;160.53;;;89.23;;
22172;SDS011;11252;50.596;17.648;2022-11-28T03:34:19;154.40;;;82.80;;
22172;SDS011;11252;50.596;17.648;2022-11-28T03:36:51;156.43;;;83.27;;
22172;SDS011;11252;50.596;17.648;2022-11-28T03:39:24;146.17;;;78.23;;
22172;SDS011;11252;50.596;17.648;2022-11-28T03:42:02;150.57;;;78.50;;
22172;SDS011;11252;50.596;17.648;2022-11-28T03:44:44;138.90;;;74.43;;
22172;SDS011;11252;50.596;17.648;2022-11-28T03:47:18;130.03;;;71.70;;
22172;SDS011;11252;50.596;17.648;2022-11-28T03:49:51;132.83;;;68.80;;
22172;SDS011;11252;50.596;17.648;2022-11-28T03:52:32;138.70;;;71.70;;
22172;SDS011;11252;50.596;17.648;2022-11-28T03:55:09;122.17;;;69.53;;
22172;SDS011;11252;50.596;17.648;2022-11-28T03:57:46;120.77;;;64.87;;
22172;SDS011;11252;50.596;17.648;2022-11-28T04:00:19;112.97;;;61.43;;
22172;SDS011;11252;50.596;17.648;2022-11-28T04:02:56;113.07;;;64.37;;
22172;SDS011;11252;50.596;17.648;2022-11-28T04:05:40;110.50;;;60.47;;
22172;SDS011;11252;50.596;17.648;2022-11-28T04:08:23;104.67;;;59.77;;
22172;SDS011;11252;50.596;17.648;2022-11-28T04:13:29;116.80;;;61.13;;
22172;SDS011;11252;50.596;17.648;2022-11-28T04:16:06;104.73;;;58.40;;
22172;SDS011;11252;50.596;17.648;2022-11-28T04:18:52;105.27;;;56.83;;
22172;SDS011;11252;50.596;17.648;2022-11-28T04:21:28;99.97;;;54.23;;
22172;SDS011;11252;50.596;17.648;2022-11-28T04:23:58;98.50;;;55.73;;
22172;SDS011;11252;50.596;17.648;2022-11-28T04:26:36;95.10;;;53.10;;
22172;SDS011;11252;50.596;17.648;2022-11-28T04:29:09;92.90;;;51.03;;
22172;SDS011;11252;50.596;17.648;2022-11-28T04:31:40;87.53;;;51.23;;
22172;SDS011;11252;50.596;17.648;2022-11-28T04:34:12;83.23;;;49.53;;
22172;SDS011;11252;50.596;17.648;2022-11-28T04:36:42;85.77;;;48.90;;
22172;SDS011;11252;50.596;17.648;2022-11-28T04:39:12;84.90;;;49.37;;
22172;SDS011;11252;50.596;17.648;2022-11-28T04:42:00;191.97;;;88.37;;
22172;SDS011;11252;50.596;17.648;2022-11-28T04:47:18;105.97;;;62.77;;
22172;SDS011;11252;50.596;17.648;2022-11-28T04:49:46;115.63;;;78.20;;
22172;SDS011;11252;50.596;17.648;2022-11-28T04:52:58;101.23;;;65.83;;
22172;SDS011;11252;50.596;17.648;2022-11-28T05:01:08;98.57;;;56.77;;
22172;SDS011;11252;50.596;17.648;2022-11-28T05:03:46;90.93;;;52.40;;
22172;SDS011;11252;50.596;17.648;2022-11-28T05:06:24;90.53;;;54.87;;
22172;SDS011;11252;50.596;17.648;2022-11-28T05:08:59;85.13;;;52.03;;
22172;SDS011;11252;50.596;17.648;2022-11-28T05:11:27;86.20;;;50.27;;
22172;SDS011;11252;50.596;17.648;2022-11-28T05:13:54;81.33;;;47.47;;
22172;SDS011;11252;50.596;17.648;2022-11-28T05:16:21;78.60;;;47.63;;
22172;SDS011;11252;50.596;17.648;2022-11-28T05:18:49;76.80;;;46.30;;
22172;SDS011;11252;50.596;17.648;2022-11-28T05:21:16;83.27;;;49.43;;
22172;SDS011;11252;50.596;17.648;2022-11-28T05:23:44;76.90;;;46.93;;
22172;SDS011;11252;50.596;17.648;2022-11-28T05:26:16;76.83;;;45.77;;
22172;SDS011;11252;50.596;17.648;2022-11-28T05:28:47;88.50;;;50.27;;
22172;SDS011;11252;50.596;17.648;2022-11-28T05:31:16;92.23;;;56.07;;
22172;SDS011;11252;50.596;17.648;2022-11-28T05:33:45;89.57;;;53.10;;
22172;SDS011;11252;50.596;17.648;2022-11-28T05:36:13;82.40;;;50.67;;
22172;SDS011;11252;50.596;17.648;2022-11-28T05:38:42;81.40;;;47.70;;
22172;SDS011;11252;50.596;17.648;2022-11-28T05:41:26;77.60;;;48.23;;
22172;SDS011;11252;50.596;17.648;2022-11-28T05:43:56;76.33;;;44.17;;
22172;SDS011;11252;50.596;17.648;2022-11-28T05:46:25;74.60;;;45.40;;
22172;SDS011;11252;50.596;17.648;2022-11-28T05:48:53;72.03;;;42.50;;
22172;SDS011;11252;50.596;17.648;2022-11-28T05:51:20;84.47;;;47.53;;
22172;SDS011;11252;50.596;17.648;2022-11-28T05:53:47;88.20;;;51.10;;
22172;SDS011;11252;50.596;17.648;2022-11-28T05:56:16;85.37;;;48.57;;
22172;SDS011;11252;50.596;17.648;2022-11-28T05:58:45;90.53;;;54.30;;
22172;SDS011;11252;50.596;17.648;2022-11-28T06:03:42;75.67;;;47.70;;
22172;SDS011;11252;50.596;17.648;2022-11-28T06:06:13;93.53;;;57.20;;
22172;SDS011;11252;50.596;17.648;2022-11-28T06:08:46;70.20;;;42.27;;
22172;SDS011;11252;50.596;17.648;2022-11-28T06:11:15;66.77;;;42.80;;
22172;SDS011;11252;50.596;17.648;2022-11-28T06:13:43;70.80;;;42.73;;
22172;SDS011;11252;50.596;17.648;2022-11-28T06:16:15;66.97;;;43.00;;
22172;SDS011;11252;50.596;17.648;2022-11-28T06:18:44;57.97;;;37.10;;
22172;SDS011;11252;50.596;17.648;2022-11-28T06:21:12;57.07;;;35.83;;
22172;SDS011;11252;50.596;17.648;2022-11-28T06:23:41;69.67;;;43.17;;
22172;SDS011;11252;50.596;17.648;2022-11-28T06:26:12;63.67;;;40.23;;
22172;SDS011;11252;50.596;17.648;2022-11-28T06:28:42;57.93;;;37.83;;
22172;SDS011;11252;50.596;17.648;2022-11-28T06:31:11;67.57;;;44.70;;
22172;SDS011;11252;50.596;17.648;2022-11-28T06:33:49;68.50;;;43.50;;
22172;SDS011;11252;50.596;17.648;2022-11-28T06:36:16;68.27;;;44.10;;
22172;SDS011;11252;50.596;17.648;2022-11-28T06:38:45;67.57;;;41.97;;
22172;SDS011;11252;50.596;17.648;2022-11-28T06:41:14;92.00;;;55.97;;
22172;SDS011;11252;50.596;17.648;2022-11-28T06:43:43;76.87;;;47.07;;
22172;SDS011;11252;50.596;17.648;2022-11-28T06:46:12;54.03;;;35.03;;
22172;SDS011;11252;50.596;17.648;2022-11-28T06:48:42;69.37;;;42.23;;
22172;SDS011;11252;50.596;17.648;2022-11-28T06:51:10;67.20;;;42.20;;
22172;SDS011;11252;50.596;17.648;2022-11-28T06:53:39;57.33;;;37.37;;
22172;SDS011;11252;50.596;17.648;2022-11-28T06:56:07;64.13;;;44.47;;
22172;SDS011;11252;50.596;17.648;2022-11-28T06:58:36;75.23;;;46.27;;
22172;SDS011;11252;50.596;17.648;2022-11-28T07:01:05;83.33;;;54.87;;
22172;SDS011;11252;50.596;17.648;2022-11-28T07:03:37;64.93;;;41.93;;
22172;SDS011;11252;50.596;17.648;2022-11-28T07:06:06;61.63;;;40.93;;
22172;SDS011;11252;50.596;17.648;2022-11-28T07:08:34;64.07;;;40.50;;
22172;SDS011;11252;50.596;17.648;2022-11-28T07:11:21;61.83;;;39.30;;
22172;SDS011;11252;50.596;17.648;2022-11-28T07:13:51;67.73;;;44.53;;
22172;SDS011;11252;50.596;17.648;2022-11-28T07:16:29;67.17;;;42.70;;
22172;SDS011;11252;50.596;17.648;2022-11-28T07:18:58;99.33;;;64.77;;
22172;SDS011;11252;50.596;17.648;2022-11-28T07:21:26;81.77;;;51.83;;
22172;SDS011;11252;50.596;17.648;2022-11-28T07:23:54;79.10;;;48.30;;
22172;SDS011;11252;50.596;17.648;2022-11-28T07:26:23;91.33;;;60.93;;
22172;SDS011;11252;50.596;17.648;2022-11-28T07:28:51;106.07;;;66.37;;
22172;SDS011;11252;50.596;17.648;2022-11-28T07:31:19;94.33;;;58.80;;
22172;SDS011;11252;50.596;17.648;2022-11-28T07:33:50;92.80;;;55.77;;
22172;SDS011;11252;50.596;17.648;2022-11-28T07:36:19;94.37;;;57.60;;
22172;SDS011;11252;50.596;17.648;2022-11-28T07:38:53;85.10;;;51.93;;
22172;SDS011;11252;50.596;17.648;2022-11-28T07:41:22;79.87;;;49.33;;
22172;SDS011;11252;50.596;17.648;2022-11-28T07:43:53;99.70;;;68.80;;
22172;SDS011;11252;50.596;17.648;2022-11-28T07:46:22;87.87;;;56.23;;
22172;SDS011;11252;50.596;17.648;2022-11-28T07:48:50;82.27;;;51.00;;
22172;SDS011;11252;50.596;17.648;2022-11-28T07:51:22;80.77;;;51.03;;
22172;SDS011;11252;50.596;17.648;2022-11-28T07:53:53;83.73;;;52.07;;
22172;SDS011;11252;50.596;17.648;2022-11-28T07:56:23;83.87;;;52.00;;
22172;SDS011;11252;50.596;17.648;2022-11-28T07:59:05;79.63;;;49.70;;
22172;SDS011;11252;50.596;17.648;2022-11-28T08:01:33;76.17;;;51.03;;
22172;SDS011;11252;50.596;17.648;2022-11-28T08:04:02;67.50;;;44.03;;
22172;SDS011;11252;50.596;17.648;2022-11-28T08:06:35;65.00;;;44.83;;
22172;SDS011;11252;50.596;17.648;2022-11-28T08:09:04;57.10;;;38.67;;
22172;SDS011;11252;50.596;17.648;2022-11-28T08:11:37;62.80;;;39.23;;
22172;SDS011;11252;50.596;17.648;2022-11-28T08:14:05;57.17;;;38.67;;
22172;SDS011;11252;50.596;17.648;2022-11-28T08:16:33;56.03;;;36.53;;
22172;SDS011;11252;50.596;17.648;2022-11-28T08:19:00;55.90;;;36.10;;
22172;SDS011;11252;50.596;17.648;2022-11-28T08:21:29;59.47;;;38.07;;
22172;SDS011;11252;50.596;17.648;2022-11-28T08:24:00;54.33;;;36.10;;
22172;SDS011;11252;50.596;17.648;2022-11-28T08:26:28;61.33;;;40.60;;
22172;SDS011;11252;50.596;17.648;2022-11-28T08:28:58;66.77;;;44.40;;
22172;SDS011;11252;50.596;17.648;2022-11-28T08:31:28;79.10;;;48.43;;
22172;SDS011;11252;50.596;17.648;2022-11-28T08:33:59;61.30;;;41.63;;
22172;SDS011;11252;50.596;17.648;2022-11-28T08:36:27;55.63;;;35.73;;
22172;SDS011;11252;50.596;17.648;2022-11-28T08:38:55;57.83;;;35.30;;
22172;SDS011;11252;50.596;17.648;2022-11-28T08:41:45;87.87;;;51.23;;
22172;SDS011;11252;50.596;17.648;2022-11-28T08:44:13;79.80;;;46.63;;
22172;SDS011;11252;50.596;17.648;2022-11-28T08:46:40;61.30;;;39.13;;
22172;SDS011;11252;50.596;17.648;2022-11-28T08:49:07;71.23;;;44.17;;
22172;SDS011;11252;50.596;17.648;2022-11-28T08:51:35;60.13;;;39.63;;
22172;SDS011;11252;50.596;17.648;2022-11-28T08:54:02;83.37;;;51.00;;
22172;SDS011;11252;50.596;17.648;2022-11-28T08:56:29;82.00;;;52.60;;
22172;SDS011;11252;50.596;17.648;2022-11-28T08:58:59;64.23;;;44.37;;
22172;SDS011;11252;50.596;17.648;2022-11-28T09:01:27;55.03;;;37.50;;
22172;SDS011;11252;50.596;17.648;2022-11-28T09:03:54;45.67;;;32.40;;
22172;SDS011;11252;50.596;17.648;2022-11-28T09:06:22;48.30;;;34.17;;
22172;SDS011;11252;50.596;17.648;2022-11-28T09:08:49;51.77;;;34.10;;
22172;SDS011;11252;50.596;17.648;2022-11-28T09:11:18;53.97;;;36.53;;
22172;SDS011;11252;50.596;17.648;2022-11-28T09:13:47;48.00;;;34.33;;
22172;SDS011;11252;50.596;17.648;2022-11-28T09:16:14;41.70;;;29.60;;
22172;SDS011;11252;50.596;17.648;2022-11-28T09:18:42;56.40;;;36.27;;
22172;SDS011;11252;50.596;17.648;2022-11-28T09:21:11;61.53;;;36.37;;
22172;SDS011;11252;50.596;17.648;2022-11-28T09:23:40;63.00;;;38.30;;
22172;SDS011;11252;50.596;17.648;2022-11-28T09:26:13;47.80;;;32.40;;
22172;SDS011;11252;50.596;17.648;2022-11-28T09:28:42;53.83;;;37.23;;
22172;SDS011;11252;50.596;17.648;2022-11-28T09:31:10;53.73;;;35.77;;
22172;SDS011;11252;50.596;17.648;2022-11-28T09:33:38;64.40;;;43.03;;
22172;SDS011;11252;50.596;17.648;2022-11-28T09:36:08;45.73;;;31.07;;
22172;SDS011;11252;50.596;17.648;2022-11-28T09:38:40;46.17;;;33.13;;
22172;SDS011;11252;50.596;17.648;2022-11-28T09:43:46;44.47;;;31.77;;
22172;SDS011;11252;50.596;17.648;2022-11-28T09:46:23;54.40;;;35.57;;
22172;SDS011;11252;50.596;17.648;2022-11-28T09:48:55;55.53;;;37.73;;
22172;SDS011;11252;50.596;17.648;2022-11-28T09:51:29;51.07;;;31.43;;
22172;SDS011;11252;50.596;17.648;2022-11-28T09:56:38;47.23;;;33.20;;
22172;SDS011;11252;50.596;17.648;2022-11-28T09:59:22;51.57;;;34.37;;
22172;SDS011;11252;50.596;17.648;2022-11-28T10:02:01;54.80;;;36.17;;
22172;SDS011;11252;50.596;17.648;2022-11-28T10:07:37;45.97;;;27.40;;
22172;SDS011;11252;50.596;17.648;2022-11-28T10:13:15;43.47;;;29.57;;
22172;SDS011;11252;50.596;17.648;2022-11-28T10:18:47;45.90;;;31.13;;
22172;SDS011;11252;50.596;17.648;2022-11-28T10:21:26;53.73;;;36.13;;
22172;SDS011;11252;50.596;17.648;2022-11-28T10:23:56;35.60;;;25.47;;
22172;SDS011;11252;50.596;17.648;2022-11-28T10:26:30;46.70;;;32.33;;
22172;SDS011;11252;50.596;17.648;2022-11-28T10:29:04;39.23;;;27.83;;
22172;SDS011;11252;50.596;17.648;2022-11-28T10:31:43;37.60;;;25.87;;
22172;SDS011;11252;50.596;17.648;2022-11-28T10:34:17;49.37;;;31.57;;
22172;SDS011;11252;50.596;17.648;2022-11-28T10:36:56;36.80;;;25.23;;
22172;SDS011;11252;50.596;17.648;2022-11-28T10:39:29;35.07;;;24.43;;
22172;SDS011;11252;50.596;17.648;2022-11-28T10:44:43;27.13;;;20.20;;
22172;SDS011;11252;50.596;17.648;2022-11-28T10:53:40;34.00;;;22.03;;
22172;SDS011;11252;50.596;17.648;2022-11-28T10:59:18;41.60;;;25.00;;
22172;SDS011;11252;50.596;17.648;2022-11-28T11:01:57;34.03;;;22.57;;
22172;SDS011;11252;50.596;17.648;2022-11-28T11:04:26;32.37;;;19.40;;
22172;SDS011;11252;50.596;17.648;2022-11-28T11:09:49;28.13;;;19.10;;
22172;SDS011;11252;50.596;17.648;2022-11-28T11:12:19;34.97;;;21.30;;
22172;SDS011;11252;50.596;17.648;2022-11-28T11:14:52;30.90;;;20.60;;
22172;SDS011;11252;50.596;17.648;2022-11-28T11:17:37;37.10;;;24.13;;
22172;SDS011;11252;50.596;17.648;2022-11-28T11:22:57;31.57;;;19.73;;
22172;SDS011;11252;50.596;17.648;2022-11-28T11:25:38;35.90;;;22.93;;
22172;SDS011;11252;50.596;17.648;2022-11-28T11:31:49;38.60;;;23.07;;
22172;SDS011;11252;50.596;17.648;2022-11-28T11:34:01;31.70;;;20.20;;
22172;SDS011;11252;50.596;17.648;2022-11-28T11:36:38;27.50;;;18.00;;
22172;SDS011;11252;50.596;17.648;2022-11-28T11:41:38;40.57;;;24.07;;
22172;SDS011;11252;50.596;17.648;2022-11-28T11:46:53;27.07;;;16.83;;
22172;SDS011;11252;50.596;17.648;2022-11-28T11:49:36;36.07;;;21.00;;
22172;SDS011;11252;50.596;17.648;2022-11-28T11:54:39;19.77;;;14.33;;
22172;SDS011;11252;50.596;17.648;2022-11-28T11:57:31;30.07;;;18.47;;
22172;SDS011;11252;50.596;17.648;2022-11-28T12:00:24;27.57;;;18.97;;
22172;SDS011;11252;50.596;17.648;2022-11-28T12:02:58;21.27;;;15.10;;
22172;SDS011;11252;50.596;17.648;2022-11-28T12:05:47;28.07;;;17.63;;
22172;SDS011;11252;50.596;17.648;2022-11-28T12:08:51;24.67;;;17.00;;
22172;SDS011;11252;50.596;17.648;2022-11-28T12:11:30;23.07;;;15.40;;
22172;SDS011;11252;50.596;17.648;2022-11-28T12:14:35;24.63;;;16.63;;
22172;SDS011;11252;50.596;17.648;2022-11-28T12:20:24;28.50;;;17.83;;
22172;SDS011;11252;50.596;17.648;2022-11-28T12:28:47;26.40;;;16.20;;
22172;SDS011;11252;50.596;17.648;2022-11-28T13:04:59;38.60;;;21.63;;
22172;SDS011;11252;50.596;17.648;2022-11-28T13:13:23;31.60;;;19.57;;
22172;SDS011;11252;50.596;17.648;2022-11-28T13:19:07;28.33;;;19.97;;
22172;SDS011;11252;50.596;17.648;2022-11-28T13:21:47;33.20;;;19.80;;
22172;SDS011;11252;50.596;17.648;2022-11-28T13:35:19;38.10;;;23.60;;
22172;SDS011;11252;50.596;17.648;2022-11-28T13:42:14;48.10;;;27.30;;
22172;SDS011;11252;50.596;17.648;2022-11-28T13:49:47;34.43;;;20.30;;
22172;SDS011;11252;50.596;17.648;2022-11-28T14:02:52;32.07;;;20.30;;
22172;SDS011;11252;50.596;17.648;2022-11-28T14:05:32;33.60;;;21.47;;
22172;SDS011;11252;50.596;17.648;2022-11-28T14:08:03;32.10;;;21.23;;
22172;SDS011;11252;50.596;17.648;2022-11-28T14:27:37;41.10;;;25.90;;
22172;SDS011;11252;50.596;17.648;2022-11-28T14:30:06;56.60;;;32.50;;
22172;SDS011;11252;50.596;17.648;2022-11-28T14:32:47;46.27;;;27.47;;
22172;SDS011;11252;50.596;17.648;2022-11-28T14:41:07;60.03;;;37.30;;
22172;SDS011;11252;50.596;17.648;2022-11-28T14:43:39;52.33;;;31.23;;
22172;SDS011;11252;50.596;17.648;2022-11-28T14:56:58;67.07;;;48.87;;
22172;SDS011;11252;50.596;17.648;2022-11-28T14:59:32;62.97;;;47.43;;
22172;SDS011;11252;50.596;17.648;2022-11-28T15:04:54;174.93;;;117.00;;
22172;SDS011;11252;50.596;17.648;2022-11-28T15:15:48;381.57;;;247.67;;
22172;SDS011;11252;50.596;17.648;2022-11-28T15:18:23;85.67;;;50.97;;
22172;SDS011;11252;50.596;17.648;2022-11-28T15:20:57;57.77;;;33.73;;
22172;SDS011;11252;50.596;17.648;2022-11-28T15:23:33;36.13;;;21.57;;
22172;SDS011;11252;50.596;17.648;2022-11-28T15:26:01;36.27;;;21.73;;
22172;SDS011;11252;50.596;17.648;2022-11-28T15:28:30;44.33;;;27.07;;
22172;SDS011;11252;50.596;17.648;2022-11-28T15:31:01;43.50;;;22.57;;
22172;SDS011;11252;50.596;17.648;2022-11-28T15:33:31;42.57;;;24.37;;
22172;SDS011;11252;50.596;17.648;2022-11-28T15:36:00;42.53;;;22.77;;
22172;SDS011;11252;50.596;17.648;2022-11-28T15:38:40;45.17;;;25.60;;
22172;SDS011;11252;50.596;17.648;2022-11-28T15:41:09;44.17;;;28.47;;
22172;SDS011;11252;50.596;17.648;2022-11-28T15:43:37;36.70;;;20.50;;
22172;SDS011;11252;50.596;17.648;2022-11-28T15:46:16;31.70;;;19.17;;
22172;SDS011;11252;50.596;17.648;2022-11-28T15:48:59;40.03;;;22.63;;
22172;SDS011;11252;50.596;17.648;2022-11-28T15:51:28;35.07;;;19.93;;
22172;SDS011;11252;50.596;17.648;2022-11-28T15:53:58;30.97;;;18.37;;
22172;SDS011;11252;50.596;17.648;2022-11-28T15:56:28;26.27;;;15.57;;
22172;SDS011;11252;50.596;17.648;2022-11-28T15:58:56;35.40;;;22.77;;
22172;SDS011;11252;50.596;17.648;2022-11-28T16:01:26;33.10;;;19.43;;
22172;SDS011;11252;50.596;17.648;2022-11-28T16:04:15;33.30;;;19.97;;
22172;SDS011;11252;50.596;17.648;2022-11-28T16:06:43;74.97;;;35.70;;
22172;SDS011;11252;50.596;17.648;2022-11-28T16:11:44;46.40;;;21.27;;
22172;SDS011;11252;50.596;17.648;2022-11-28T16:14:15;33.77;;;20.50;;
22172;SDS011;11252;50.596;17.648;2022-11-28T16:16:53;25.57;;;16.57;;
22172;SDS011;11252;50.596;17.648;2022-11-28T16:19:27;29.83;;;16.73;;
22172;SDS011;11252;50.596;17.648;2022-11-28T16:22:18;27.63;;;17.03;;
22172;SDS011;11252;50.596;17.648;2022-11-28T16:24:51;27.67;;;18.00;;
22172;SDS011;11252;50.596;17.648;2022-11-28T16:27:32;31.30;;;20.40;;
22172;SDS011;11252;50.596;17.648;2022-11-28T16:30:22;62.73;;;33.07;;
22172;SDS011;11252;50.596;17.648;2022-11-28T16:32:50;91.37;;;49.00;;
22172;SDS011;11252;50.596;17.648;2022-11-28T16:35:30;54.73;;;27.40;;
22172;SDS011;11252;50.596;17.648;2022-11-28T16:38:16;40.97;;;22.20;;
22172;SDS011;11252;50.596;17.648;2022-11-28T16:40:48;39.80;;;21.03;;
22172;SDS011;11252;50.596;17.648;2022-11-28T16:43:23;56.67;;;26.17;;
22172;SDS011;11252;50.596;17.648;2022-11-28T16:45:59;47.03;;;27.37;;
22172;SDS011;11252;50.596;17.648;2022-11-28T16:48:29;41.37;;;24.20;;
22172;SDS011;11252;50.596;17.648;2022-11-28T17:01:26;40.77;;;21.93;;
22172;SDS011;11252;50.596;17.648;2022-11-28T17:03:54;93.63;;;43.33;;
22172;SDS011;11252;50.596;17.648;2022-11-28T17:06:24;39.87;;;23.97;;
22172;SDS011;11252;50.596;17.648;2022-11-28T17:09:06;35.03;;;21.77;;
22172;SDS011;11252;50.596;17.648;2022-11-28T17:11:37;33.33;;;20.40;;
22172;SDS011;11252;50.596;17.648;2022-11-28T17:14:09;29.07;;;19.63;;
22172;SDS011;11252;50.596;17.648;2022-11-28T17:16:39;30.47;;;19.97;;
22172;SDS011;11252;50.596;17.648;2022-11-28T17:19:08;29.87;;;18.03;;
22172;SDS011;11252;50.596;17.648;2022-11-28T17:21:41;24.27;;;15.53;;
22172;SDS011;11252;50.596;17.648;2022-11-28T17:24:20;47.20;;;27.73;;
22172;SDS011;11252;50.596;17.648;2022-11-28T17:26:52;65.63;;;37.33;;
22172;SDS011;11252;50.596;17.648;2022-11-28T17:29:20;36.63;;;24.17;;
22172;SDS011;11252;50.596;17.648;2022-11-28T17:31:50;32.67;;;20.37;;
22172;SDS011;11252;50.596;17.648;2022-11-28T17:34:22;34.20;;;21.10;;
22172;SDS011;11252;50.596;17.648;2022-11-28T17:36:50;37.37;;;23.77;;
22172;SDS011;11252;50.596;17.648;2022-11-28T17:39:18;42.60;;;25.87;;
22172;SDS011;11252;50.596;17.648;2022-11-28T17:41:47;47.20;;;26.00;;
22172;SDS011;11252;50.596;17.648;2022-11-28T17:44:19;38.13;;;22.40;;
22172;SDS011;11252;50.596;17.648;2022-11-28T17:47:07;35.57;;;21.23;;
22172;SDS011;11252;50.596;17.648;2022-11-28T17:49:35;41.33;;;24.40;;
22172;SDS011;11252;50.596;17.648;2022-11-28T17:52:08;36.87;;;20.43;;
22172;SDS011;11252;50.596;17.648;2022-11-28T17:54:36;28.70;;;17.93;;
22172;SDS011;11252;50.596;17.648;2022-11-28T17:57:03;28.97;;;16.63;;
22172;SDS011;11252;50.596;17.648;2022-11-28T17:59:30;40.83;;;22.13;;
22172;SDS011;11252;50.596;17.648;2022-11-28T18:02:00;35.37;;;20.37;;
22172;SDS011;11252;50.596;17.648;2022-11-28T18:04:27;29.87;;;17.63;;
22172;SDS011;11252;50.596;17.648;2022-11-28T18:06:54;54.30;;;31.10;;
22172;SDS011;11252;50.596;17.648;2022-11-28T18:09:22;213.50;;;113.20;;
22172;SDS011;11252;50.596;17.648;2022-11-28T18:11:50;73.43;;;42.23;;
22172;SDS011;11252;50.596;17.648;2022-11-28T18:14:17;89.63;;;47.30;;
22172;SDS011;11252;50.596;17.648;2022-11-28T18:16:45;84.57;;;49.93;;
22172;SDS011;11252;50.596;17.648;2022-11-28T18:19:12;58.80;;;40.67;;
22172;SDS011;11252;50.596;17.648;2022-11-28T18:21:40;39.47;;;25.57;;
22172;SDS011;11252;50.596;17.648;2022-11-28T18:24:07;30.40;;;18.87;;
22172;SDS011;11252;50.596;17.648;2022-11-28T18:26:35;40.80;;;24.23;;